createdAt,value
2023-04-10T00:00:39.335Z,96796.34
2023-04-10T00:01:40.938Z,96794.28
2023-04-10T00:02:42.857Z,96801.72
2023-04-10T00:03:44.774Z,96795.09
2023-04-10T00:04:46.839Z,96794.94
2023-04-10T00:05:48.434Z,96797.44
2023-04-10T00:06:50.047Z,96789.25
2023-04-10T00:07:51.687Z,96792.53
2023-04-10T00:08:53.212Z,96787.31
2023-04-10T00:09:55.033Z,96795.16
2023-04-10T00:10:57.100Z,96794.38
2023-04-10T00:11:59.485Z,96791.38
2023-04-10T00:13:03.437Z,96793.59
2023-04-10T00:14:04.971Z,96788.25
2023-04-10T00:15:07.194Z,96793.59
2023-04-10T00:16:08.899Z,96794.25
2023-04-10T00:17:10.709Z,96791.56
2023-04-10T00:18:12.739Z,96790.91
2023-04-10T00:19:14.349Z,96791.84
2023-04-10T00:20:16.299Z,96794.69
2023-04-10T00:21:18.049Z,96791.38
2023-04-10T00:22:19.578Z,96789.81
2023-04-10T00:23:21.327Z,96790.44
2023-04-10T00:24:22.876Z,96785.28
2023-04-10T00:25:24.465Z,96781.84
2023-04-10T00:26:26.903Z,96783.06
2023-04-10T00:27:28.448Z,96783.72
2023-04-10T00:28:30.280Z,96776.34
2023-04-10T00:29:31.825Z,96773.47
2023-04-10T00:30:33.414Z,96782.91
2023-04-10T00:31:35.030Z,96774.88
2023-04-10T00:32:36.716Z,96778.47
2023-04-10T00:33:38.309Z,96776.41
2023-04-10T00:34:39.854Z,96772.78
2023-04-10T00:35:41.431Z,96770.56
2023-04-10T00:36:43.048Z,96772.94
2023-04-10T00:37:44.638Z,96771.72
2023-04-10T00:38:46.613Z,96775.88
2023-04-10T00:39:48.184Z,96771.84
2023-04-10T00:40:49.829Z,96778.34
2023-04-10T00:41:51.325Z,96773.63
2023-04-10T00:42:53.144Z,96767.00
2023-04-10T00:43:57.921Z,96768.41
2023-04-10T00:45:00.288Z,96769.50
2023-04-10T00:46:01.899Z,96774.38
2023-04-10T00:47:07.612Z,96771.72
2023-04-10T00:48:09.210Z,96766.03
2023-04-10T00:49:10.886Z,96772.16
2023-04-10T00:50:12.710Z,96769.31
2023-04-10T00:51:14.533Z,96771.81
2023-04-10T00:52:16.616Z,96775.09
2023-04-10T00:53:18.219Z,96778.91
2023-04-10T00:54:20.251Z,96773.41
2023-04-10T00:55:21.864Z,96770.25
2023-04-10T00:56:24.946Z,96774.00
2023-04-10T00:57:27.115Z,96776.50
2023-04-10T00:58:28.747Z,96777.25
2023-04-10T00:59:31.590Z,96777.16
2023-04-10T01:00:33.167Z,96774.84
2023-04-10T01:01:34.784Z,96773.56
2023-04-10T01:02:36.619Z,96769.94
2023-04-10T01:03:40.137Z,96767.22
2023-04-10T01:04:42.219Z,96763.44
2023-04-10T01:05:52.315Z,96771.16
2023-04-10T01:06:59.305Z,96766.56
2023-04-10T01:08:13.538Z,96761.22
2023-04-10T01:09:32.796Z,96761.56
2023-04-10T01:10:42.862Z,96760.78
2023-04-10T01:11:50.597Z,96756.22
2023-04-10T01:12:56.145Z,96764.09
2023-04-10T01:14:19.390Z,96763.03
2023-04-10T01:15:23.659Z,96770.75
2023-04-10T01:16:33.720Z,96765.41
2023-04-10T01:17:54.851Z,96769.19
2023-04-10T01:19:31.266Z,96770.31
2023-04-10T01:20:37.562Z,96763.41
2023-04-10T01:21:41.548Z,96764.22
2023-04-10T01:23:04.550Z,96773.00
2023-04-10T01:24:06.249Z,96768.94
2023-04-10T01:25:10.823Z,96767.84
2023-04-10T01:26:17.346Z,96768.00
2023-04-10T01:27:44.282Z,96765.00
2023-04-10T01:28:56.942Z,96760.47
2023-04-10T01:30:01.539Z,96762.50
2023-04-10T01:31:06.611Z,96763.13
2023-04-10T01:32:18.852Z,96760.44
2023-04-10T01:33:22.750Z,96764.53
2023-04-10T01:34:32.561Z,96753.09
2023-04-10T01:35:35.860Z,96751.34
2023-04-10T01:36:45.628Z,96754.47
2023-04-10T01:37:50.641Z,96753.72
2023-04-10T01:38:54.926Z,96759.84
2023-04-10T01:40:02.856Z,96759.06
2023-04-10T01:41:06.301Z,96752.94
2023-04-10T01:42:10.758Z,96755.28
2023-04-10T01:43:13.139Z,96759.50
2023-04-10T01:44:16.062Z,96759.19
2023-04-10T01:45:22.004Z,96763.28
2023-04-10T01:46:25.189Z,96756.38
2023-04-10T01:47:28.015Z,96762.34
2023-04-10T01:48:30.212Z,96761.41
2023-04-10T01:49:33.006Z,96752.13
2023-04-10T01:50:36.014Z,96764.66
2023-04-10T01:51:37.777Z,96757.31
2023-04-10T01:52:40.614Z,96763.59
2023-04-10T01:53:44.709Z,96756.38
2023-04-10T01:54:48.527Z,96757.16
2023-04-10T01:55:52.325Z,96756.03
2023-04-10T01:56:54.016Z,96757.47
2023-04-10T01:57:56.508Z,96748.38
2023-04-10T01:58:58.468Z,96753.06
2023-04-10T02:00:00.069Z,96752.59
2023-04-10T02:01:01.944Z,96749.16
2023-04-10T02:02:04.852Z,96748.81
2023-04-10T02:03:06.796Z,96753.22
2023-04-10T02:04:08.673Z,96756.38
2023-04-10T02:05:11.033Z,96752.91
2023-04-10T02:06:27.975Z,96751.94
2023-04-10T02:07:42.736Z,96758.84
2023-04-10T02:08:55.595Z,96749.75
2023-04-10T02:10:07.412Z,96752.91
2023-04-10T02:11:15.492Z,96754.31
2023-04-10T02:12:22.722Z,96753.69
2023-04-10T02:13:27.837Z,96754.16
2023-04-10T02:14:32.315Z,96749.75
2023-04-10T02:15:35.689Z,96750.56
2023-04-10T02:16:39.156Z,96746.78
2023-04-10T02:17:40.952Z,96749.13
2023-04-10T02:18:43.590Z,96749.59
2023-04-10T02:19:48.387Z,96758.09
2023-04-10T02:20:50.550Z,96758.25
2023-04-10T02:21:52.297Z,96755.09
2023-04-10T02:22:54.408Z,96749.59
2023-04-10T02:23:59.620Z,96755.72
2023-04-10T02:25:04.640Z,96746.47
2023-04-10T02:26:09.986Z,96747.88
2023-04-10T02:27:11.564Z,96740.97
2023-04-10T02:28:13.111Z,96748.03
2023-04-10T02:29:15.080Z,96743.78
2023-04-10T02:30:16.656Z,96753.50
2023-04-10T02:31:18.344Z,96742.84
2023-04-10T02:32:20.113Z,96747.69
2023-04-10T02:33:21.686Z,96743.00
2023-04-10T02:34:23.226Z,96748.94
2023-04-10T02:35:24.967Z,96745.47
2023-04-10T02:36:26.484Z,96746.25
2023-04-10T02:37:27.978Z,96746.25
2023-04-10T02:38:29.512Z,96742.34
2023-04-10T02:39:31.026Z,96744.81
2023-04-10T02:40:32.710Z,96750.00
2023-04-10T02:41:34.248Z,96743.16
2023-04-10T02:42:35.883Z,96741.28
2023-04-10T02:43:37.453Z,96750.09
2023-04-10T02:44:39.676Z,96743.97
2023-04-10T02:45:41.900Z,96740.84
2023-04-10T02:46:43.590Z,96744.31
2023-04-10T02:47:45.221Z,96753.22
2023-04-10T02:48:47.654Z,96748.66
2023-04-10T02:49:49.170Z,96750.09
2023-04-10T02:50:56.579Z,96753.84
2023-04-10T02:51:58.188Z,96742.25
2023-04-10T02:52:59.780Z,96742.56
2023-04-10T02:54:01.283Z,96745.09
2023-04-10T02:55:02.835Z,96739.59
2023-04-10T02:56:06.659Z,96747.91
2023-04-10T02:57:08.403Z,96741.78
2023-04-10T02:58:09.943Z,96737.38
2023-04-10T02:59:13.344Z,96745.69
2023-04-10T03:00:15.673Z,96746.78
2023-04-10T03:01:17.313Z,96736.47
2023-04-10T03:02:18.958Z,96743.50
2023-04-10T03:03:20.777Z,96744.63
2023-04-10T03:04:22.697Z,96745.22
2023-04-10T03:05:24.303Z,96748.22
2023-04-10T03:06:28.657Z,96744.00
2023-04-10T03:07:30.219Z,96746.03
2023-04-10T03:08:31.785Z,96742.25
2023-04-10T03:09:33.294Z,96743.50
2023-04-10T03:10:34.858Z,96739.91
2023-04-10T03:11:36.441Z,96740.38
2023-04-10T03:12:38.022Z,96735.97
2023-04-10T03:13:39.554Z,96750.09
2023-04-10T03:14:41.467Z,96742.75
2023-04-10T03:15:43.587Z,96744.28
2023-04-10T03:16:45.347Z,96744.91
2023-04-10T03:17:47.513Z,96746.00
2023-04-10T03:18:49.088Z,96741.63
2023-04-10T03:19:50.692Z,96747.28
2023-04-10T03:20:52.253Z,96747.09
2023-04-10T03:21:53.889Z,96745.09
2023-04-10T03:22:55.722Z,96741.94
2023-04-10T03:23:57.347Z,96741.94
2023-04-10T03:24:59.064Z,96748.06
2023-04-10T03:26:00.793Z,96740.66
2023-04-10T03:27:02.352Z,96739.56
2023-04-10T03:28:03.973Z,96739.41
2023-04-10T03:29:05.484Z,96746.66
2023-04-10T03:30:07.863Z,96741.16
2023-04-10T03:31:10.721Z,96744.47
2023-04-10T03:32:12.334Z,96736.59
2023-04-10T03:33:14.106Z,96734.56
2023-04-10T03:34:15.712Z,96732.97
2023-04-10T03:35:17.260Z,96737.53
2023-04-10T03:36:18.940Z,96735.81
2023-04-10T03:37:20.642Z,96737.06
2023-04-10T03:38:22.148Z,96743.81
2023-04-10T03:39:24.738Z,96741.28
2023-04-10T03:40:26.355Z,96742.22
2023-04-10T03:41:27.920Z,96743.16
2023-04-10T03:42:29.619Z,96736.25
2023-04-10T03:43:31.571Z,96743.16
2023-04-10T03:44:34.260Z,96740.66
2023-04-10T03:45:35.884Z,96748.34
2023-04-10T03:46:37.463Z,96744.56
2023-04-10T03:47:39.075Z,96744.28
2023-04-10T03:48:41.341Z,96750.53
2023-04-10T03:49:42.899Z,96744.72
2023-04-10T03:50:44.582Z,96740.97
2023-04-10T03:51:46.317Z,96741.59
2023-04-10T03:52:49.795Z,96742.69
2023-04-10T03:53:51.539Z,96738.47
2023-04-10T03:54:53.354Z,96743.78
2023-04-10T03:55:54.994Z,96740.81
2023-04-10T03:56:57.189Z,96737.06
2023-04-10T03:57:58.715Z,96747.59
2023-04-10T03:59:00.251Z,96743.81
2023-04-10T04:00:02.798Z,96751.66
2023-04-10T04:01:05.452Z,96754.16
2023-04-10T04:02:07.762Z,96745.53
2023-04-10T04:03:09.776Z,96744.75
2023-04-10T04:04:11.583Z,96742.38
2023-04-10T04:05:13.409Z,96755.72
2023-04-10T04:06:14.963Z,96745.06
2023-04-10T04:07:16.515Z,96752.94
2023-04-10T04:08:18.283Z,96752.13
2023-04-10T04:09:19.840Z,96752.59
2023-04-10T04:10:21.372Z,96748.53
2023-04-10T04:11:22.940Z,96758.88
2023-04-10T04:12:24.470Z,96753.38
2023-04-10T04:13:26.006Z,96750.06
2023-04-10T04:14:27.571Z,96749.59
2023-04-10T04:15:29.117Z,96755.44
2023-04-10T04:16:30.768Z,96748.66
2023-04-10T04:17:32.586Z,96752.13
2023-04-10T04:18:34.159Z,96747.13
2023-04-10T04:19:35.847Z,96749.16
2023-04-10T04:20:37.382Z,96753.41
2023-04-10T04:21:38.922Z,96751.81
2023-04-10T04:22:41.545Z,96753.84
2023-04-10T04:23:43.138Z,96749.00
2023-04-10T04:24:44.723Z,96754.63
2023-04-10T04:25:46.272Z,96755.91
2023-04-10T04:26:47.808Z,96756.69
2023-04-10T04:27:49.339Z,96754.19
2023-04-10T04:28:51.131Z,96759.50
2023-04-10T04:29:52.673Z,96752.31
2023-04-10T04:30:54.176Z,96757.47
2023-04-10T04:31:55.885Z,96755.59
2023-04-10T04:32:57.448Z,96755.91
2023-04-10T04:33:59.995Z,96760.31
2023-04-10T04:35:01.574Z,96755.91
2023-04-10T04:36:03.248Z,96759.19
2023-04-10T04:37:05.609Z,96760.78
2023-04-10T04:38:07.157Z,96752.44
2023-04-10T04:39:08.683Z,96758.28
2023-04-10T04:40:10.800Z,96759.53
2023-04-10T04:41:12.438Z,96756.06
2023-04-10T04:42:13.996Z,96756.53
2023-04-10T04:43:15.733Z,96758.88
2023-04-10T04:44:19.683Z,96760.94
2023-04-10T04:45:21.957Z,96761.72
2023-04-10T04:46:23.597Z,96764.66
2023-04-10T04:47:25.339Z,96758.84
2023-04-10T04:48:26.999Z,96756.97
2023-04-10T04:49:28.573Z,96765.28
2023-04-10T04:50:30.300Z,96758.56
2023-04-10T04:51:31.850Z,96759.00
2023-04-10T04:52:35.371Z,96759.47
2023-04-10T04:53:37.025Z,96757.91
2023-04-10T04:54:38.560Z,96762.16
2023-04-10T04:55:40.970Z,96761.06
2023-04-10T04:56:42.520Z,96760.41
2023-04-10T04:57:44.054Z,96766.69
2023-04-10T04:58:45.692Z,96767.31
2023-04-10T04:59:47.248Z,96761.34
2023-04-10T05:00:48.789Z,96760.72
2023-04-10T05:01:50.452Z,96768.56
2023-04-10T05:02:53.389Z,96769.50
2023-04-10T05:03:56.162Z,96763.84
2023-04-10T05:04:58.249Z,96761.34
2023-04-10T05:05:59.877Z,96762.22
2023-04-10T05:07:01.585Z,96755.66
2023-04-10T05:08:03.269Z,96769.16
2023-04-10T05:09:04.856Z,96762.88
2023-04-10T05:10:07.012Z,96761.66
2023-04-10T05:11:11.004Z,96763.84
2023-04-10T05:12:12.724Z,96766.19
2023-04-10T05:13:15.763Z,96765.09
2023-04-10T05:14:17.357Z,96771.72
2023-04-10T05:15:18.986Z,96763.06
2023-04-10T05:16:20.636Z,96769.50
2023-04-10T05:17:22.226Z,96772.66
2023-04-10T05:18:23.982Z,96771.53
2023-04-10T05:19:25.713Z,96776.25
2023-04-10T05:20:27.340Z,96770.59
2023-04-10T05:21:28.917Z,96775.44
2023-04-10T05:22:31.139Z,96771.06
2023-04-10T05:23:32.669Z,96774.84
2023-04-10T05:24:34.410Z,96771.38
2023-04-10T05:25:36.403Z,96770.09
2023-04-10T05:26:38.114Z,96769.16
2023-04-10T05:27:39.742Z,96765.38
2023-04-10T05:28:41.292Z,96772.91
2023-04-10T05:29:42.816Z,96772.78
2023-04-10T05:30:44.930Z,96766.66
2023-04-10T05:31:46.749Z,96777.69
2023-04-10T05:32:48.372Z,96763.22
2023-04-10T05:33:49.948Z,96768.56
2023-04-10T05:34:51.550Z,96772.34
2023-04-10T05:35:53.583Z,96773.25
2023-04-10T05:36:57.509Z,96771.97
2023-04-10T05:38:00.855Z,96773.56
2023-04-10T05:39:02.458Z,96770.88
2023-04-10T05:40:05.041Z,96772.91
2023-04-10T05:41:06.666Z,96770.84
2023-04-10T05:42:08.266Z,96772.09
2023-04-10T05:43:09.838Z,96776.75
2023-04-10T05:44:11.432Z,96772.50
2023-04-10T05:45:14.876Z,96773.41
2023-04-10T05:46:16.535Z,96776.53
2023-04-10T05:47:18.179Z,96776.53
2023-04-10T05:48:19.735Z,96775.13
2023-04-10T05:49:21.377Z,96773.38
2023-04-10T05:50:23.181Z,96775.56
2023-04-10T05:51:24.799Z,96775.25
2023-04-10T05:52:26.383Z,96775.00
2023-04-10T05:53:33.637Z,96777.50
2023-04-10T05:54:36.255Z,96778.41
2023-04-10T05:55:38.473Z,96773.19
2023-04-10T05:56:40.051Z,96774.91
2023-04-10T05:57:41.564Z,96776.47
2023-04-10T05:58:43.127Z,96777.38
2023-04-10T05:59:44.652Z,96774.22
2023-04-10T06:00:46.741Z,96780.28
2023-04-10T06:01:48.326Z,96778.34
2023-04-10T06:02:49.986Z,96777.03
2023-04-10T06:04:22.245Z,96771.66
2023-04-10T06:05:23.958Z,96774.78
2023-04-10T06:06:26.352Z,96771.91
2023-04-10T06:07:28.778Z,96771.91
2023-04-10T06:08:30.760Z,96777.06
2023-04-10T06:09:32.398Z,96778.91
2023-04-10T06:10:33.980Z,96772.41
2023-04-10T06:11:35.584Z,96774.34
2023-04-10T06:12:37.203Z,96772.75
2023-04-10T06:13:38.852Z,96771.50
2023-04-10T06:14:40.519Z,96775.88
2023-04-10T06:15:42.170Z,96775.84
2023-04-10T06:16:43.813Z,96770.72
2023-04-10T06:17:45.358Z,96770.50
2023-04-10T06:18:47.813Z,96778.34
2023-04-10T06:19:49.456Z,96771.69
2023-04-10T06:20:51.058Z,96769.84
2023-04-10T06:21:54.510Z,96764.41
2023-04-10T06:22:56.973Z,96762.00
2023-04-10T06:23:58.548Z,96761.91
2023-04-10T06:25:00.379Z,96764.56
2023-04-10T06:26:03.468Z,96765.03
2023-04-10T06:27:05.038Z,96756.44
2023-04-10T06:28:06.637Z,96760.47
2023-04-10T06:29:08.289Z,96765.28
2023-04-10T06:30:10.489Z,96758.25
2023-04-10T06:31:12.564Z,96762.84
2023-04-10T06:32:14.226Z,96753.25
2023-04-10T06:33:16.374Z,96759.38
2023-04-10T06:34:18.183Z,96762.28
2023-04-10T06:35:19.780Z,96756.25
2023-04-10T06:36:21.696Z,96757.16
2023-04-10T06:37:33.197Z,96760.41
2023-04-10T06:38:37.741Z,96754.47
2023-04-10T06:39:39.440Z,96754.69
2023-04-10T06:40:41.632Z,96756.63
2023-04-10T06:41:43.188Z,96761.53
2023-04-10T06:42:44.771Z,96762.28
2023-04-10T06:43:46.363Z,96763.31
2023-04-10T06:44:47.881Z,96758.72
2023-04-10T06:45:49.458Z,96766.72
2023-04-10T06:46:51.005Z,96756.94
2023-04-10T06:47:52.826Z,96758.16
2023-04-10T06:48:54.592Z,96757.84
2023-04-10T06:49:56.242Z,96758.06
2023-04-10T06:51:00.492Z,96755.47
2023-04-10T06:52:02.068Z,96752.91
2023-04-10T06:53:03.594Z,96763.75
2023-04-10T06:54:05.508Z,96752.53
2023-04-10T06:55:07.671Z,96747.34
2023-04-10T06:56:09.556Z,96753.50
2023-04-10T06:57:11.141Z,96755.97
2023-04-10T06:58:12.735Z,96747.69
2023-04-10T06:59:14.300Z,96750.72
2023-04-10T07:00:16.275Z,96749.47
2023-04-10T07:01:17.968Z,96759.09
2023-04-10T07:02:19.684Z,96751.97
2023-04-10T07:03:21.469Z,96755.69
2023-04-10T07:04:22.998Z,96749.31
2023-04-10T07:05:24.608Z,96753.13
2023-04-10T07:06:27.077Z,96757.84
2023-04-10T07:07:29.282Z,96751.31
2023-04-10T07:08:30.852Z,96755.06
2023-04-10T07:09:32.388Z,96751.44
2023-04-10T07:10:33.903Z,96756.06
2023-04-10T07:11:35.514Z,96758.84
2023-04-10T07:12:37.016Z,96755.13
2023-04-10T07:13:40.203Z,96760.28
2023-04-10T07:14:42.343Z,96746.84
2023-04-10T07:15:43.936Z,96747.28
2023-04-10T07:16:45.596Z,96748.16
2023-04-10T07:17:48.376Z,96748.19
2023-04-10T07:18:49.934Z,96751.31
2023-04-10T07:19:51.480Z,96748.50
2023-04-10T07:20:54.051Z,96751.50
2023-04-10T07:21:55.690Z,96745.22
2023-04-10T07:22:57.221Z,96745.22
2023-04-10T07:23:58.729Z,96745.28
2023-04-10T07:25:00.538Z,96740.13
2023-04-10T07:26:02.098Z,96739.72
2023-04-10T07:27:05.900Z,96742.84
2023-04-10T07:28:07.479Z,96740.69
2023-04-10T07:29:09.434Z,96739.91
2023-04-10T07:30:13.561Z,96744.16
2023-04-10T07:31:15.688Z,96740.75
2023-04-10T07:32:17.868Z,96741.06
2023-04-10T07:33:19.713Z,96742.03
2023-04-10T07:34:21.449Z,96737.63
2023-04-10T07:35:23.041Z,96738.38
2023-04-10T07:36:24.631Z,96734.59
2023-04-10T07:37:26.531Z,96734.91
2023-04-10T07:38:28.202Z,96733.44
2023-04-10T07:39:29.777Z,96738.59
2023-04-10T07:40:31.348Z,96731.66
2023-04-10T07:41:33.018Z,96731.75
2023-04-10T07:42:34.600Z,96731.50
2023-04-10T07:43:36.401Z,96729.16
2023-04-10T07:44:37.991Z,96727.75
2023-04-10T07:45:39.560Z,96728.63
2023-04-10T07:46:41.774Z,96734.06
2023-04-10T07:47:43.360Z,96731.28
2023-04-10T07:48:44.902Z,96739.94
2023-04-10T07:49:46.446Z,96734.44
2023-04-10T07:50:48.210Z,96728.91
2023-04-10T07:51:49.729Z,96729.97
2023-04-10T07:52:51.331Z,96729.41
2023-04-10T07:53:53.049Z,96730.69
2023-04-10T07:54:54.663Z,96727.50
2023-04-10T07:55:56.513Z,96723.69
2023-04-10T07:56:58.029Z,96725.66
2023-04-10T07:58:00.246Z,96723.56
2023-04-10T07:59:02.905Z,96723.13
2023-04-10T08:00:04.911Z,96725.06
2023-04-10T08:01:06.972Z,96729.47
2023-04-10T08:02:08.618Z,96723.25
2023-04-10T08:03:11.759Z,96731.31
2023-04-10T08:04:13.628Z,96729.19
2023-04-10T08:05:15.746Z,96727.81
2023-04-10T08:06:17.415Z,96729.13
2023-04-10T08:07:22.116Z,96715.78
2023-04-10T08:08:23.680Z,96711.03
2023-04-10T08:09:25.394Z,96718.91
2023-04-10T08:10:26.905Z,96717.59
2023-04-10T08:11:35.201Z,96717.41
2023-04-10T08:12:38.189Z,96709.81
2023-04-10T08:13:39.739Z,96720.91
2023-04-10T08:14:41.404Z,96710.84
2023-04-10T08:15:43.050Z,96714.13
2023-04-10T08:16:44.652Z,96720.13
2023-04-10T08:17:46.325Z,96718.31
2023-04-10T08:18:47.920Z,96716.00
2023-04-10T08:19:49.474Z,96712.38
2023-04-10T08:20:51.005Z,96711.50
2023-04-10T08:21:52.560Z,96708.56
2023-04-10T08:22:55.261Z,96713.84
2023-04-10T08:24:00.403Z,96712.09
2023-04-10T08:25:01.941Z,96709.31
2023-04-10T08:26:03.655Z,96702.59
2023-04-10T08:27:05.252Z,96703.19
2023-04-10T08:28:06.890Z,96704.75
2023-04-10T08:29:08.511Z,96691.63
2023-04-10T08:30:10.522Z,96704.97
2023-04-10T08:31:12.119Z,96699.00
2023-04-10T08:32:13.746Z,96699.09
2023-04-10T08:33:15.592Z,96698.75
2023-04-10T08:34:17.197Z,96693.84
2023-04-10T08:35:18.888Z,96689.38
2023-04-10T08:36:20.733Z,96695.06
2023-04-10T08:37:22.649Z,96696.91
2023-04-10T08:38:27.494Z,96695.41
2023-04-10T08:39:29.056Z,96696.28
2023-04-10T08:40:30.664Z,96692.59
2023-04-10T08:41:32.271Z,96689.47
2023-04-10T08:42:34.623Z,96683.75
2023-04-10T08:43:37.288Z,96685.41
2023-04-10T08:44:39.883Z,96682.72
2023-04-10T08:45:41.765Z,96687.72
2023-04-10T08:46:45.289Z,96682.44
2023-04-10T08:47:50.126Z,96682.16
2023-04-10T08:49:17.277Z,96679.28
2023-04-10T08:50:20.279Z,96687.50
2023-04-10T08:51:26.691Z,96687.28
2023-04-10T08:52:31.560Z,96680.47
2023-04-10T08:53:36.940Z,96677.44
2023-04-10T08:54:41.527Z,96684.38
2023-04-10T08:55:44.447Z,96686.16
2023-04-10T08:56:51.217Z,96686.66
2023-04-10T08:58:00.431Z,96685.63
2023-04-10T08:59:03.652Z,96675.53
2023-04-10T09:00:19.846Z,96674.31
2023-04-10T09:01:21.774Z,96673.25
2023-04-10T09:02:24.933Z,96670.03
2023-04-10T09:03:27.794Z,96674.47
2023-04-10T09:04:29.715Z,96666.81
2023-04-10T09:05:31.613Z,96668.31
2023-04-10T09:06:33.183Z,96669.97
2023-04-10T09:07:34.702Z,96666.44
2023-04-10T09:08:36.459Z,96665.59
2023-04-10T09:09:38.038Z,96656.78
2023-04-10T09:10:39.647Z,96660.50
2023-04-10T09:11:56.513Z,96671.63
2023-04-10T09:12:58.068Z,96661.22
2023-04-10T09:13:59.575Z,96662.34
2023-04-10T09:15:01.047Z,96663.06
2023-04-10T09:16:02.956Z,96658.66
2023-04-10T09:17:21.636Z,96651.50
2023-04-10T09:18:40.260Z,96649.03
2023-04-10T09:19:42.413Z,96656.69
2023-04-10T09:20:44.046Z,96644.06
2023-04-10T09:21:50.770Z,96650.84
2023-04-10T09:22:52.931Z,96644.84
2023-04-10T09:24:01.284Z,96648.81
2023-04-10T09:25:04.254Z,96643.41
2023-04-10T09:26:29.328Z,96645.16
2023-04-10T09:27:35.996Z,96647.63
2023-04-10T09:28:56.584Z,96656.19
2023-04-10T09:29:58.730Z,96649.59
2023-04-10T09:31:00.340Z,96638.50
2023-04-10T09:32:01.996Z,96648.88
2023-04-10T09:33:20.746Z,96642.69
2023-04-10T09:34:23.382Z,96643.16
2023-04-10T09:35:36.836Z,96633.72
2023-04-10T09:36:38.638Z,96639.78
2023-04-10T09:37:42.363Z,96644.53
2023-04-10T09:38:51.576Z,96637.00
2023-04-10T09:39:53.280Z,96638.69
2023-04-10T09:41:07.051Z,96632.94
2023-04-10T09:42:09.668Z,96640.25
2023-04-10T09:43:19.202Z,96642.25
2023-04-10T09:44:41.510Z,96639.16
2023-04-10T09:45:51.668Z,96636.47
2023-04-10T09:46:54.039Z,96628.94
2023-04-10T09:48:04.166Z,96626.66
2023-04-10T09:49:07.437Z,96623.31
2023-04-10T09:50:09.079Z,96630.84
2023-04-10T09:51:29.759Z,96628.00
2023-04-10T09:52:34.685Z,96631.38
2023-04-10T09:53:49.682Z,96624.13
2023-04-10T09:54:52.210Z,96622.59
2023-04-10T09:55:55.075Z,96626.22
2023-04-10T09:56:57.604Z,96623.53
2023-04-10T09:58:00.347Z,96620.56
2023-04-10T09:59:04.685Z,96627.28
2023-04-10T10:00:09.568Z,96624.81
2023-04-10T10:01:12.731Z,96623.06
2023-04-10T10:02:16.449Z,96621.19
2023-04-10T10:03:21.155Z,96609.63
2023-04-10T10:04:23.702Z,96619.72
2023-04-10T10:05:30.505Z,96616.44
2023-04-10T10:06:33.213Z,96608.53
2023-04-10T10:07:35.879Z,96613.53
2023-04-10T10:08:37.631Z,96611.69
2023-04-10T10:09:39.675Z,96606.31
2023-04-10T10:11:03.356Z,96611.97
2023-04-10T10:12:06.873Z,96608.50
2023-04-10T10:13:10.413Z,96614.06
2023-04-10T10:14:17.597Z,96618.03
2023-04-10T10:15:46.840Z,96610.13
2023-04-10T10:16:57.123Z,96606.72
2023-04-10T10:18:17.912Z,96605.38
2023-04-10T10:19:24.760Z,96600.00
2023-04-10T10:20:27.512Z,96603.81
2023-04-10T10:21:30.743Z,96601.34
2023-04-10T10:22:32.783Z,96602.75
2023-04-10T10:23:35.048Z,96602.81
2023-04-10T10:24:40.112Z,96608.19
2023-04-10T10:25:42.786Z,96599.00
2023-04-10T10:26:45.349Z,96597.19
2023-04-10T10:27:49.645Z,96599.19
2023-04-10T10:28:55.154Z,96591.03
2023-04-10T10:30:00.950Z,96594.34
2023-04-10T10:31:04.856Z,96598.94
2023-04-10T10:32:08.360Z,96585.44
2023-04-10T10:33:11.086Z,96590.75
2023-04-10T10:34:13.562Z,96591.03
2023-04-10T10:35:17.122Z,96592.91
2023-04-10T10:36:20.458Z,96585.44
2023-04-10T10:37:22.078Z,96598.63
2023-04-10T10:38:23.764Z,96580.25
2023-04-10T10:39:34.272Z,96586.47
2023-04-10T10:40:49.260Z,96591.97
2023-04-10T10:42:15.651Z,96580.06
2023-04-10T10:43:35.499Z,96578.13
2023-04-10T10:44:53.862Z,96584.28
2023-04-10T10:46:04.787Z,96573.56
2023-04-10T10:47:06.348Z,96579.00
2023-04-10T10:48:08.167Z,96571.66
2023-04-10T10:49:09.797Z,96578.19
2023-04-10T10:50:11.432Z,96567.56
2023-04-10T10:51:13.044Z,96567.06
2023-04-10T10:52:14.661Z,96572.66
2023-04-10T10:53:37.137Z,96573.09
2023-04-10T10:54:47.202Z,96569.22
2023-04-10T10:55:55.250Z,96573.88
2023-04-10T10:56:56.853Z,96568.53
2023-04-10T10:58:03.656Z,96563.88
2023-04-10T10:59:05.357Z,96577.75
2023-04-10T11:00:07.646Z,96564.00
2023-04-10T11:01:10.558Z,96558.25
2023-04-10T11:02:17.669Z,96564.16
2023-04-10T11:03:19.484Z,96562.69
2023-04-10T11:04:51.330Z,96558.81
2023-04-10T11:05:58.718Z,96556.50
2023-04-10T11:07:00.311Z,96553.34
2023-04-10T11:08:02.034Z,96549.06
2023-04-10T11:09:03.622Z,96547.06
2023-04-10T11:10:05.631Z,96551.13
2023-04-10T11:11:08.076Z,96551.31
2023-04-10T11:12:09.617Z,96545.56
2023-04-10T11:13:18.426Z,96550.19
2023-04-10T11:14:20.367Z,96546.78
2023-04-10T11:15:25.936Z,96545.31
2023-04-10T11:16:31.460Z,96551.53
2023-04-10T11:17:54.361Z,96546.56
2023-04-10T11:19:14.246Z,96535.00
2023-04-10T11:20:18.474Z,96542.34
2023-04-10T11:21:22.417Z,96544.66
2023-04-10T11:22:23.940Z,96535.78
2023-04-10T11:23:25.497Z,96543.53
2023-04-10T11:24:27.116Z,96546.56
2023-04-10T11:25:51.968Z,96535.34
2023-04-10T11:26:53.565Z,96536.09
2023-04-10T11:27:55.167Z,96541.81
2023-04-10T11:28:56.954Z,96531.41
2023-04-10T11:29:59.412Z,96536.03
2023-04-10T11:31:19.707Z,96527.59
2023-04-10T11:32:21.457Z,96526.81
2023-04-10T11:33:23.065Z,96534.03
2023-04-10T11:34:24.851Z,96530.91
2023-04-10T11:35:28.370Z,96518.84
2023-04-10T11:36:31.197Z,96525.69
2023-04-10T11:37:32.774Z,96526.41
2023-04-10T11:38:34.621Z,96530.97
2023-04-10T11:39:36.583Z,96528.13
2023-04-10T11:40:54.469Z,96531.38
2023-04-10T11:41:59.300Z,96532.50
2023-04-10T11:43:14.952Z,96536.94
2023-04-10T11:44:31.670Z,96531.53
2023-04-10T11:45:33.245Z,96534.03
2023-04-10T11:46:39.750Z,96535.72
2023-04-10T11:47:41.653Z,96526.59
2023-04-10T11:48:43.232Z,96521.75
2023-04-10T11:49:55.746Z,96516.75
2023-04-10T11:50:57.755Z,96515.94
2023-04-10T11:51:59.278Z,96529.00
2023-04-10T11:53:00.844Z,96513.56
2023-04-10T11:54:20.312Z,96516.97
2023-04-10T11:55:39.062Z,96518.09
2023-04-10T11:56:42.501Z,96515.38
2023-04-10T11:57:45.469Z,96508.41
2023-04-10T11:58:49.958Z,96512.72
2023-04-10T11:59:51.849Z,96503.50
2023-04-10T12:01:01.291Z,96508.91
2023-04-10T12:02:15.931Z,96512.09
2023-04-10T12:03:17.875Z,96502.81
2023-04-10T12:04:21.521Z,96505.97
2023-04-10T12:05:23.196Z,96496.72
2023-04-10T12:06:24.931Z,96505.16
2023-04-10T12:07:30.298Z,96499.66
2023-04-10T12:08:41.668Z,96502.78
2023-04-10T12:09:43.565Z,96493.44
2023-04-10T12:10:47.006Z,96502.28
2023-04-10T12:12:04.168Z,96496.91
2023-04-10T12:13:06.658Z,96491.88
2023-04-10T12:14:08.259Z,96491.44
2023-04-10T12:15:28.965Z,96498.69
2023-04-10T12:16:33.087Z,96500.03
2023-04-10T12:17:34.712Z,96496.22
2023-04-10T12:18:37.379Z,96495.56
2023-04-10T12:19:39.734Z,96497.75
2023-04-10T12:20:41.628Z,96490.34
2023-04-10T12:21:44.053Z,96490.94
2023-04-10T12:22:46.896Z,96484.88
2023-04-10T12:23:48.487Z,96489.50
2023-04-10T12:24:51.842Z,96484.97
2023-04-10T12:26:06.724Z,96482.63
2023-04-10T12:27:29.421Z,96475.66
2023-04-10T12:28:30.995Z,96474.63
2023-04-10T12:29:32.672Z,96475.88